Time;durP1;ratioP1;P1;durP2;ratioP2;P2;SDS_P1;SDS_P2;PMS_P1;PMS_P2;Temp;Humidity;BMP_temperature;BMP_pressure;BME280_temperature;BME280_humidity;BME280_pressure;Samples;Min_cycle;Max_cycle;Signal;HPM_P1;HPM_P2
2022/03/31 00:00:38;;;;;;;2.13;1.00;;;4.40;99.90;;;;;;5020128;28;20087;-77
2022/03/31 00:03:09;;;;;;;1.67;0.80;;;4.40;99.90;;;;;;5003300;28;20052;-78
2022/03/31 00:05:36;;;;;;;1.95;0.70;;;4.30;99.90;;;;;;4998023;28;20037;-78
2022/03/31 00:08:08;;;;;;;2.05;0.73;;;4.30;99.90;;;;;;5001934;28;20029;-77
2022/03/31 00:10:35;;;;;;;2.88;0.80;;;4.30;99.90;;;;;;5021121;28;20018;-77
2022/03/31 00:13:04;;;;;;;2.10;0.90;;;4.30;99.90;;;;;;4996385;28;20033;-78
2022/03/31 00:15:31;;;;;;;1.85;0.90;;;4.30;99.90;;;;;;5018890;28;20860;-77
2022/03/31 00:18:01;;;;;;;1.88;0.90;;;4.30;99.90;;;;;;4987034;28;20402;-77
2022/03/31 00:24:08;;;;;;;3.20;1.77;;;4.20;99.90;;;;;;5021067;28;20095;-78
2022/03/31 00:26:34;;;;;;;2.78;1.27;;;4.20;99.90;;;;;;5000405;28;20037;-78
2022/03/31 00:29:00;;;;;;;2.58;1.60;;;4.20;99.90;;;;;;4981573;28;20032;-78
2022/03/31 00:31:25;;;;;;;3.38;1.98;;;4.20;99.90;;;;;;5003060;28;20292;-79
2022/03/31 00:33:51;;;;;;;2.13;1.38;;;4.20;99.90;;;;;;5003454;28;20033;-78
2022/03/31 00:36:17;;;;;;;3.60;1.40;;;4.20;99.90;;;;;;5020707;28;20116;-78
2022/03/31 00:39:28;;;;;;;2.42;0.88;;;4.20;99.90;;;;;;5020130;28;20040;-77
2022/03/31 00:41:28;;;;;;;3.42;1.88;;;4.20;99.90;;;;;;5012365;28;20041;-77
2022/03/31 00:43:54;;;;;;;3.03;1.73;;;4.20;99.90;;;;;;4985867;28;20041;-78
2022/03/31 00:46:23;;;;;;;3.20;2.08;;;4.10;99.90;;;;;;5001272;28;20053;-77
2022/03/31 00:48:49;;;;;;;3.63;2.42;;;4.10;99.90;;;;;;5009689;28;20426;-78
2022/03/31 00:51:15;;;;;;;4.75;2.03;;;4.10;99.90;;;;;;5019969;28;20056;-77
2022/03/31 00:53:40;;;;;;;4.80;2.10;;;4.10;99.90;;;;;;5009676;28;20201;-78
2022/03/31 00:56:06;;;;;;;3.63;1.52;;;4.10;99.90;;;;;;5019915;28;20044;-78
2022/03/31 00:58:33;;;;;;;3.58;1.90;;;4.10;99.90;;;;;;4965303;28;20048;-78
2022/03/31 01:00:59;;;;;;;2.40;1.20;;;4.10;99.90;;;;;;5002884;28;20629;-77
2022/03/31 01:03:24;;;;;;;2.90;1.40;;;4.10;99.90;;;;;;5003126;28;20382;-77
2022/03/31 01:05:50;;;;;;;4.10;1.98;;;4.10;99.90;;;;;;5019325;28;20043;-78
2022/03/31 01:08:17;;;;;;;2.70;1.77;;;4.10;99.90;;;;;;4996648;28;20288;-76
2022/03/31 01:10:46;;;;;;;2.00;1.08;;;4.10;99.90;;;;;;5019771;28;20087;-77
2022/03/31 01:13:12;;;;;;;2.53;1.30;;;4.00;99.90;;;;;;4997020;28;20029;-76
2022/03/31 01:15:38;;;;;;;3.90;1.73;;;4.00;99.90;;;;;;5002285;28;20508;-78
2022/03/31 01:18:05;;;;;;;2.92;1.33;;;4.00;99.90;;;;;;5008498;28;20033;-77
2022/03/31 01:20:33;;;;;;;2.63;1.10;;;4.00;99.90;;;;;;5002335;28;20466;-78
2022/03/31 01:23:00;;;;;;;3.25;1.08;;;4.00;99.90;;;;;;5019133;28;20083;-78
2022/03/31 01:25:26;;;;;;;4.78;2.50;;;4.00;99.90;;;;;;4996472;28;20549;-78
2022/03/31 01:27:52;;;;;;;3.28;1.80;;;3.90;99.90;;;;;;4997023;28;20756;-78
2022/03/31 01:30:22;;;;;;;3.28;1.13;;;3.90;99.90;;;;;;4997182;28;20029;-77
2022/03/31 01:32:48;;;;;;;3.83;1.83;;;3.90;99.90;;;;;;5012096;28;20532;-77
2022/03/31 01:35:15;;;;;;;2.38;1.00;;;3.90;99.90;;;;;;4979236;28;20284;-78
2022/03/31 01:37:41;;;;;;;3.03;1.15;;;3.90;99.90;;;;;;4984554;28;20029;-77
2022/03/31 01:40:08;;;;;;;3.45;1.85;;;3.90;99.90;;;;;;5001719;28;20030;-78
2022/03/31 01:42:35;;;;;;;4.55;2.83;;;3.90;99.90;;;;;;4995601;28;20040;-78
2022/03/31 01:45:02;;;;;;;3.83;2.30;;;3.80;99.90;;;;;;5017015;28;20037;-78
2022/03/31 01:47:28;;;;;;;4.93;2.63;;;3.80;99.90;;;;;;4995813;28;20037;-78
2022/03/31 01:49:54;;;;;;;3.55;1.58;;;3.80;99.90;;;;;;5001081;28;20068;-78
2022/03/31 01:52:22;;;;;;;4.28;1.92;;;3.90;99.90;;;;;;4984918;28;20042;-78
2022/03/31 01:54:48;;;;;;;3.03;1.30;;;3.90;99.90;;;;;;5000462;28;20029;-78
2022/03/31 01:57:14;;;;;;;3.10;1.42;;;3.90;99.90;;;;;;4995859;28;20039;-77
2022/03/31 01:59:43;;;;;;;4.60;1.23;;;3.90;99.90;;;;;;5008916;28;20686;-78
2022/03/31 02:02:12;;;;;;;3.40;1.52;;;3.90;99.90;;;;;;4979619;28;20533;-78
2022/03/31 02:04:38;;;;;;;3.13;1.05;;;3.90;99.90;;;;;;5017739;28;20041;-78
2022/03/31 02:07:04;;;;;;;4.00;1.30;;;3.90;99.90;;;;;;5018523;28;20068;-78
2022/03/31 02:09:30;;;;;;;3.45;1.20;;;3.90;99.90;;;;;;4995040;28;20121;-78
2022/03/31 02:11:58;;;;;;;2.63;0.90;;;3.90;99.90;;;;;;4977566;28;20028;-78
2022/03/31 02:14:24;;;;;;;5.07;1.65;;;3.90;99.90;;;;;;5001634;28;20501;-80
2022/03/31 02:16:50;;;;;;;3.22;1.80;;;3.80;99.90;;;;;;4995813;28;20159;-77
2022/03/31 02:19:16;;;;;;;3.83;1.52;;;3.80;99.90;;;;;;5007808;28;20039;-77
2022/03/31 02:21:42;;;;;;;4.63;1.50;;;3.90;99.90;;;;;;5018372;28;20036;-78
2022/03/31 02:24:08;;;;;;;2.38;1.00;;;3.90;99.90;;;;;;5001047;28;20045;-77
2022/03/31 02:26:38;;;;;;;4.13;1.50;;;3.90;99.90;;;;;;4983159;28;20111;-79
2022/03/31 02:29:04;;;;;;;4.50;2.00;;;3.80;99.90;;;;;;4995248;28;20092;-78
2022/03/31 02:31:31;;;;;;;3.85;1.42;;;3.80;99.90;;;;;;5000175;28;20025;-77
2022/03/31 02:33:57;;;;;;;2.47;1.00;;;3.90;99.90;;;;;;4995067;28;20030;-79
2022/03/31 02:36:23;;;;;;;3.22;0.90;;;3.90;99.90;;;;;;5000628;28;20037;-78
2022/03/31 02:38:49;;;;;;;3.83;0.90;;;3.90;99.90;;;;;;5000878;28;21701;-78
2022/03/31 02:41:14;;;;;;;4.13;1.17;;;3.90;99.90;;;;;;4995328;28;20242;-78
2022/03/31 02:43:40;;;;;;;5.03;1.52;;;3.80;99.90;;;;;;5016510;28;20096;-78
2022/03/31 02:46:06;;;;;;;2.10;0.90;;;3.80;99.90;;;;;;5018427;28;20041;-77
2022/03/31 02:48:32;;;;;;;7.65;2.33;;;3.80;99.90;;;;;;5000880;28;20033;-77
2022/03/31 02:50:57;;;;;;;3.63;2.13;;;3.80;99.90;;;;;;5005223;28;20040;-78
2022/03/31 02:56:07;;;;;;;4.18;2.25;;;3.60;99.90;;;;;;5000057;28;20033;-78
2022/03/31 02:58:33;;;;;;;4.50;1.48;;;3.60;99.90;;;;;;5021871;28;20029;-78
2022/03/31 03:00:58;;;;;;;2.97;0.90;;;3.60;99.90;;;;;;5005082;28;20112;-78
2022/03/31 03:03:24;;;;;;;2.95;1.35;;;3.70;99.90;;;;;;5005535;28;20048;-78
2022/03/31 03:05:49;;;;;;;3.65;1.13;;;3.50;99.90;;;;;;4997605;28;20505;-78
2022/03/31 03:08:15;;;;;;;3.22;1.27;;;3.50;99.90;;;;;;4997923;28;20079;-78
2022/03/31 03:10:41;;;;;;;2.95;0.77;;;3.40;99.90;;;;;;4999533;28;20060;-77
2022/03/31 03:13:08;;;;;;;4.40;0.80;;;3.40;99.90;;;;;;5022318;28;20341;-79
2022/03/31 03:15:33;;;;;;;2.33;0.70;;;3.40;99.90;;;;;;5003625;28;20029;-79
2022/03/31 03:17:59;;;;;;;2.15;1.00;;;3.40;99.90;;;;;;5005329;28;20505;-79
2022/03/31 03:20:25;;;;;;;3.03;0.90;;;3.40;99.90;;;;;;4987162;28;20156;-78
2022/03/31 03:22:52;;;;;;;2.53;0.90;;;3.30;99.90;;;;;;4998319;28;20129;-78
2022/03/31 03:25:19;;;;;;;1.90;0.85;;;3.30;99.90;;;;;;5003830;28;20029;-78
2022/03/31 03:27:46;;;;;;;2.50;0.80;;;3.30;99.90;;;;;;5021352;28;20541;-79
2022/03/31 03:30:12;;;;;;;2.47;0.70;;;3.20;99.90;;;;;;4982744;28;20032;-79
2022/03/31 03:32:39;;;;;;;3.13;1.02;;;3.20;99.90;;;;;;5020809;28;20049;-78
2022/03/31 03:35:06;;;;;;;1.85;0.80;;;3.10;99.90;;;;;;5013470;28;20170;-78
2022/03/31 03:37:32;;;;;;;3.22;0.70;;;3.20;99.90;;;;;;5002551;28;20117;-78
2022/03/31 03:39:58;;;;;;;2.05;0.60;;;3.10;99.90;;;;;;4997063;28;20426;-78
2022/03/31 03:42:25;;;;;;;2.10;0.65;;;3.10;99.90;;;;;;5019931;28;20040;-78
2022/03/31 03:44:50;;;;;;;1.25;0.55;;;3.20;99.90;;;;;;5021809;28;20084;-78
2022/03/31 03:47:16;;;;;;;2.22;0.60;;;3.10;99.90;;;;;;4998411;28;20112;-77
2022/03/31 03:49:42;;;;;;;2.28;0.70;;;3.00;99.90;;;;;;4987034;28;20473;-78
2022/03/31 03:52:08;;;;;;;1.52;0.60;;;3.00;99.90;;;;;;4981075;28;20073;-78
2022/03/31 03:54:33;;;;;;;1.38;0.60;;;3.00;99.90;;;;;;5003760;28;20029;-78
2022/03/31 03:56:59;;;;;;;1.80;0.50;;;3.00;99.90;;;;;;4981507;28;20491;-78
2022/03/31 03:59:24;;;;;;;1.48;0.77;;;3.00;99.90;;;;;;5010644;28;20040;-78
2022/03/31 04:01:50;;;;;;;1.55;0.68;;;2.80;99.90;;;;;;5004978;28;20033;-78
2022/03/31 04:04:16;;;;;;;1.58;0.70;;;2.80;99.90;;;;;;4987683;28;20196;-78
2022/03/31 04:06:42;;;;;;;1.70;0.60;;;2.80;99.90;;;;;;5003656;28;20032;-78
2022/03/31 04:09:08;;;;;;;2.22;0.70;;;2.80;99.90;;;;;;5003738;28;20296;-79
2022/03/31 04:11:34;;;;;;;1.33;0.60;;;2.70;99.90;;;;;;5003473;28;20273;-79
2022/03/31 04:13:59;;;;;;;1.40;0.60;;;2.70;99.90;;;;;;5019988;28;20040;-79
2022/03/31 04:16:25;;;;;;;1.15;0.47;;;2.60;99.90;;;;;;5020619;28;20040;-78
2022/03/31 04:18:51;;;;;;;1.50;0.60;;;2.70;99.90;;;;;;5001853;28;20030;-78
2022/03/31 04:21:16;;;;;;;2.13;0.60;;;2.60;99.90;;;;;;5002186;28;20026;-78
2022/03/31 04:23:42;;;;;;;1.23;0.50;;;2.50;99.90;;;;;;4977946;28;20038;-78
2022/03/31 04:26:08;;;;;;;1.08;0.43;;;2.60;99.90;;;;;;4986812;28;20386;-77
2022/03/31 04:28:34;;;;;;;1.05;0.40;;;2.50;99.90;;;;;;4997291;28;20312;-78
2022/03/31 04:31:00;;;;;;;1.30;0.50;;;2.50;99.90;;;;;;5020080;28;20033;-77
2022/03/31 04:33:27;;;;;;;1.02;0.30;;;2.50;99.90;;;;;;5001927;28;20040;-77
2022/03/31 04:35:52;;;;;;;0.70;0.30;;;2.60;99.90;;;;;;4996471;28;20029;-77
2022/03/31 04:38:18;;;;;;;1.17;0.40;;;2.60;99.90;;;;;;4995700;28;20043;-76
2022/03/31 04:40:43;;;;;;;0.80;0.40;;;2.40;99.90;;;;;;5010009;28;20120;-78
2022/03/31 04:43:09;;;;;;;1.10;0.40;;;2.40;99.90;;;;;;4986564;28;20515;-79
2022/03/31 04:45:35;;;;;;;1.17;0.47;;;2.30;99.90;;;;;;5003414;28;20489;-78
2022/03/31 04:48:00;;;;;;;1.17;0.40;;;2.40;99.90;;;;;;4985030;28;20044;-77
2022/03/31 04:50:26;;;;;;;0.93;0.30;;;2.40;99.90;;;;;;5002010;28;20033;-78
2022/03/31 04:52:51;;;;;;;0.93;0.40;;;2.50;99.90;;;;;;5002754;28;20041;-76
2022/03/31 04:55:17;;;;;;;1.13;0.30;;;2.50;99.90;;;;;;5017173;28;20457;-76
2022/03/31 04:57:43;;;;;;;0.95;0.40;;;2.50;99.90;;;;;;5009766;28;20037;-77
2022/03/31 05:00:09;;;;;;;0.85;0.32;;;2.50;99.90;;;;;;4985983;28;20056;-78
2022/03/31 05:02:34;;;;;;;1.00;0.40;;;2.40;99.90;;;;;;5019386;28;20045;-77
2022/03/31 05:05:00;;;;;;;1.70;0.40;;;2.50;99.90;;;;;;5019927;28;20038;-78
2022/03/31 05:07:26;;;;;;;1.35;0.50;;;2.40;99.90;;;;;;4995678;28;20035;-78
2022/03/31 05:09:52;;;;;;;1.48;0.50;;;2.40;99.90;;;;;;4986455;28;20033;-78
2022/03/31 05:12:18;;;;;;;1.17;0.40;;;2.40;99.90;;;;;;4980497;28;20116;-78
2022/03/31 05:14:43;;;;;;;1.08;0.45;;;2.40;99.90;;;;;;5002999;28;20120;-77
2022/03/31 05:17:10;;;;;;;1.20;0.50;;;2.30;99.90;;;;;;5017602;28;20033;-78
2022/03/31 05:19:37;;;;;;;1.90;0.35;;;2.30;99.90;;;;;;5001188;28;20053;-78
2022/03/31 05:22:03;;;;;;;0.85;0.30;;;2.30;99.90;;;;;;4996778;28;20036;-77
2022/03/31 05:24:28;;;;;;;1.30;0.50;;;2.30;99.90;;;;;;4994822;28;20045;-78
2022/03/31 05:26:54;;;;;;;1.10;0.40;;;2.30;99.90;;;;;;4984007;28;20409;-78
2022/03/31 05:29:21;;;;;;;1.00;0.40;;;2.20;99.90;;;;;;5018487;28;20176;-79
2022/03/31 05:31:47;;;;;;;1.10;0.50;;;2.30;99.90;;;;;;4994986;28;20080;-77
2022/03/31 05:34:13;;;;;;;1.08;0.30;;;2.30;99.90;;;;;;4993775;28;20037;-79
2022/03/31 05:36:38;;;;;;;1.02;0.60;;;2.30;99.90;;;;;;5000058;28;20025;-77
2022/03/31 05:39:04;;;;;;;1.45;0.70;;;2.30;99.90;;;;;;5000463;28;20486;-78
2022/03/31 05:41:30;;;;;;;1.60;0.60;;;2.20;99.90;;;;;;4999998;28;20462;-77
2022/03/31 05:43:56;;;;;;;1.20;0.50;;;2.20;99.90;;;;;;5016990;28;20052;-77
2022/03/31 05:46:23;;;;;;;1.50;0.60;;;2.20;99.90;;;;;;4977153;28;20022;-77
2022/03/31 05:48:49;;;;;;;1.90;0.88;;;2.20;99.90;;;;;;5018095;28;20045;-77
2022/03/31 05:51:15;;;;;;;1.80;0.90;;;2.20;99.90;;;;;;4991628;28;20049;-77
2022/03/31 05:53:41;;;;;;;2.20;0.95;;;2.20;99.90;;;;;;5000445;28;20037;-77
2022/03/31 05:56:07;;;;;;;1.40;0.60;;;2.10;99.90;;;;;;4983639;28;20633;-77
2022/03/31 05:58:33;;;;;;;1.75;0.60;;;2.20;99.90;;;;;;5018461;28;20030;-77
2022/03/31 06:00:59;;;;;;;1.88;0.60;;;2.20;99.90;;;;;;4999923;28;20088;-78
2022/03/31 06:03:25;;;;;;;1.15;0.50;;;2.20;99.90;;;;;;4996109;28;20522;-77
2022/03/31 06:05:53;;;;;;;1.10;0.40;;;2.30;99.90;;;;;;4995881;28;20377;-80
2022/03/31 06:08:19;;;;;;;1.58;0.40;;;2.30;99.90;;;;;;4995355;28;20497;-79
2022/03/31 06:10:45;;;;;;;1.00;0.40;;;2.30;99.90;;;;;;5001163;28;20041;-77
2022/03/31 06:13:11;;;;;;;1.67;0.50;;;2.20;99.90;;;;;;5005252;28;20044;-77
2022/03/31 06:15:38;;;;;;;1.50;0.60;;;2.30;99.90;;;;;;5001119;28;20040;-79
2022/03/31 06:18:06;;;;;;;2.20;0.60;;;2.20;99.90;;;;;;4979989;28;20034;-79
2022/03/31 06:20:34;;;;;;;1.27;0.50;;;2.00;99.90;;;;;;5000753;28;20040;-79
2022/03/31 06:23:03;;;;;;;1.58;0.85;;;2.00;99.90;;;;;;5000134;28;20044;-78
2022/03/31 06:25:29;;;;;;;1.58;0.73;;;1.90;99.90;;;;;;4994244;28;20045;-79
2022/03/31 06:27:55;;;;;;;1.50;0.65;;;1.80;99.90;;;;;;4983283;28;20474;-78
2022/03/31 06:30:21;;;;;;;1.30;0.60;;;1.80;99.90;;;;;;4997303;28;20040;-78
2022/03/31 06:32:47;;;;;;;1.30;0.60;;;1.80;99.90;;;;;;4998259;28;20029;-78
2022/03/31 06:35:14;;;;;;;1.45;0.60;;;1.80;99.90;;;;;;5000125;28;20052;-78
2022/03/31 06:37:49;;;;;;;1.83;0.70;;;1.80;99.90;;;;;;4999555;28;20060;-78
2022/03/31 06:40:17;;;;;;;1.38;0.60;;;1.80;99.90;;;;;;5016044;28;20747;-78
2022/03/31 06:42:44;;;;;;;1.83;0.80;;;1.80;99.90;;;;;;4999002;28;20044;-78
2022/03/31 06:45:12;;;;;;;1.40;0.60;;;1.70;99.90;;;;;;4981618;28;20034;-79
2022/03/31 06:47:39;;;;;;;3.13;0.60;;;1.70;99.90;;;;;;4961507;28;20044;-77
2022/03/31 06:50:06;;;;;;;2.25;0.63;;;1.70;99.90;;;;;;4999817;28;20026;-79
2022/03/31 06:52:31;;;;;;;1.35;0.60;;;1.70;99.90;;;;;;5017041;28;20054;-79
2022/03/31 06:54:57;;;;;;;1.50;0.60;;;1.70;99.90;;;;;;4994929;28;20360;-79
2022/03/31 06:57:23;;;;;;;1.60;0.70;;;1.60;99.90;;;;;;5017446;28;20036;-79
2022/03/31 06:59:50;;;;;;;2.70;0.50;;;1.50;99.90;;;;;;5014450;28;20497;-79
2022/03/31 07:02:16;;;;;;;1.27;0.50;;;1.50;99.90;;;;;;5017194;28;20044;-78
2022/03/31 07:04:41;;;;;;;1.00;0.47;;;1.50;99.90;;;;;;4997708;28;20038;-79
2022/03/31 07:07:07;;;;;;;1.88;0.50;;;1.50;99.90;;;;;;5018674;28;20025;-78
2022/03/31 07:09:33;;;;;;;1.30;0.50;;;1.50;99.90;;;;;;4983528;28;20036;-78
2022/03/31 07:11:59;;;;;;;1.77;0.70;;;1.50;99.90;;;;;;5017075;28;20030;-78
2022/03/31 07:14:24;;;;;;;1.60;0.70;;;1.40;99.90;;;;;;4994772;28;20132;-79
2022/03/31 07:16:50;;;;;;;2.00;0.80;;;1.40;99.90;;;;;;5017852;28;20049;-78
2022/03/31 07:19:16;;;;;;;1.48;0.60;;;1.40;99.90;;;;;;4983840;28;20033;-79
2022/03/31 07:21:41;;;;;;;2.05;0.88;;;1.40;99.90;;;;;;5001138;28;20029;-78
2022/03/31 07:24:07;;;;;;;2.05;0.82;;;1.30;99.90;;;;;;4993497;28;20109;-78
2022/03/31 07:26:32;;;;;;;1.60;0.70;;;1.30;99.90;;;;;;4990130;28;20029;-78
2022/03/31 07:28:58;;;;;;;1.02;0.50;;;1.30;99.90;;;;;;4999788;28;20048;-77
2022/03/31 07:31:26;;;;;;;1.33;0.50;;;1.30;99.90;;;;;;5008132;28;20033;-78
2022/03/31 07:33:52;;;;;;;1.10;0.40;;;1.40;99.90;;;;;;4995975;28;20099;-77
2022/03/31 07:36:18;;;;;;;1.13;0.40;;;1.40;99.90;;;;;;5004343;28;20033;-78
2022/03/31 07:38:45;;;;;;;1.50;0.50;;;1.40;99.90;;;;;;4997918;28;21214;-78
2022/03/31 07:41:12;;;;;;;1.25;0.50;;;1.40;99.90;;;;;;5018417;28;20120;-78
2022/03/31 07:43:38;;;;;;;1.40;0.70;;;1.40;99.90;;;;;;4980819;28;20603;-77
2022/03/31 07:46:04;;;;;;;1.50;0.52;;;1.40;99.90;;;;;;4985364;28;20028;-78
2022/03/31 07:48:29;;;;;;;0.88;0.30;;;1.40;99.90;;;;;;5019913;28;20029;-78
2022/03/31 07:50:58;;;;;;;0.98;0.40;;;1.40;99.90;;;;;;5020574;28;20048;-78
2022/03/31 07:53:25;;;;;;;1.25;0.60;;;1.40;99.90;;;;;;5020246;28;20138;-77
2022/03/31 07:55:51;;;;;;;0.95;0.40;;;1.40;99.90;;;;;;5019565;28;20462;-78
2022/03/31 07:58:16;;;;;;;1.67;0.73;;;1.40;99.90;;;;;;4984291;28;20033;-79
2022/03/31 08:00:42;;;;;;;1.50;0.75;;;1.30;99.90;;;;;;5002856;28;20029;-78
2022/03/31 08:03:08;;;;;;;1.27;0.60;;;1.30;99.90;;;;;;4985080;28;20059;-78
2022/03/31 08:05:37;;;;;;;2.00;0.80;;;1.30;99.90;;;;;;5020898;28;20025;-79
2022/03/31 08:08:03;;;;;;;1.55;0.63;;;1.30;99.90;;;;;;4980497;28;20083;-78
2022/03/31 08:10:29;;;;;;;1.85;0.80;;;1.30;99.90;;;;;;5001582;28;20037;-77
2022/03/31 08:12:55;;;;;;;1.17;0.60;;;1.30;99.90;;;;;;5002702;28;20367;-78
2022/03/31 08:15:23;;;;;;;1.50;0.70;;;1.30;99.90;;;;;;5000885;28;20620;-78
2022/03/31 08:17:50;;;;;;;1.48;0.68;;;1.40;99.90;;;;;;5001661;28;20029;-78
2022/03/31 08:20:16;;;;;;;2.35;0.70;;;1.40;99.90;;;;;;4996666;28;20037;-80
2022/03/31 08:22:42;;;;;;;1.13;0.50;;;1.40;99.90;;;;;;4987955;28;20034;-78
2022/03/31 08:25:09;;;;;;;1.73;0.90;;;1.50;99.90;;;;;;5000472;28;20084;-79
2022/03/31 08:27:35;;;;;;;1.30;0.60;;;1.40;99.90;;;;;;5018060;28;20034;-80
2022/03/31 08:30:04;;;;;;;1.40;0.60;;;1.50;99.90;;;;;;4997548;28;20041;-78
2022/03/31 08:32:34;;;;;;;1.60;0.70;;;1.50;99.90;;;;;;5001501;28;20424;-78
2022/03/31 08:35:01;;;;;;;1.65;0.85;;;1.50;99.90;;;;;;5003278;28;20037;-77
2022/03/31 08:37:27;;;;;;;1.38;0.60;;;1.50;99.90;;;;;;5019186;28;20066;-78
2022/03/31 08:39:52;;;;;;;1.85;0.98;;;1.50;99.90;;;;;;4984657;28;20045;-78
2022/03/31 08:42:18;;;;;;;1.30;0.60;;;1.40;99.90;;;;;;4997488;28;20034;-79
2022/03/31 08:44:45;;;;;;;1.40;0.60;;;1.40;99.90;;;;;;5002289;28;20064;-79
2022/03/31 08:47:12;;;;;;;1.40;0.73;;;1.40;99.90;;;;;;5019460;28;20456;-78
2022/03/31 08:49:38;;;;;;;2.15;0.88;;;1.30;99.90;;;;;;4996870;28;20093;-79
2022/03/31 08:52:04;;;;;;;2.13;0.95;;;1.30;99.90;;;;;;5019089;28;20666;-79
2022/03/31 08:54:30;;;;;;;1.60;0.70;;;1.30;99.90;;;;;;4999822;28;20034;-79
2022/03/31 08:56:56;;;;;;;2.33;0.50;;;1.30;99.90;;;;;;5018147;28;20033;-79
2022/03/31 08:59:21;;;;;;;1.10;0.50;;;1.30;99.90;;;;;;5008818;28;20030;-78
2022/03/31 09:01:47;;;;;;;1.25;0.50;;;1.30;99.90;;;;;;5018161;28;20033;-79
2022/03/31 09:04:22;;;;;;;1.08;0.50;;;1.20;99.90;;;;;;4979941;28;20037;-78
2022/03/31 09:06:59;;;;;;;1.65;0.70;;;1.20;99.90;;;;;;4978321;28;20040;-78
2022/03/31 09:09:25;;;;;;;1.40;0.65;;;1.20;99.90;;;;;;5001099;28;20036;-80
2022/03/31 09:11:51;;;;;;;1.50;0.68;;;1.20;99.90;;;;;;4985335;28;20422;-79
2022/03/31 09:14:28;;;;;;;1.35;0.60;;;1.20;99.90;;;;;;4994195;28;20608;-79
2022/03/31 09:16:54;;;;;;;2.22;0.70;;;1.20;99.90;;;;;;4963489;28;20029;-79
2022/03/31 09:19:20;;;;;;;1.33;0.60;;;1.20;99.90;;;;;;4983995;28;20071;-78
2022/03/31 09:21:54;;;;;;;1.92;0.50;;;1.20;99.90;;;;;;5016965;28;20036;-79
2022/03/31 09:24:22;;;;;;;1.25;0.60;;;1.20;99.90;;;;;;4983317;28;20128;-80
2022/03/31 09:26:49;;;;;;;2.00;0.88;;;1.20;99.90;;;;;;5019126;28;20029;-77
2022/03/31 09:29:17;;;;;;;1.60;0.75;;;1.20;99.90;;;;;;5016095;28;20170;-77
2022/03/31 09:31:43;;;;;;;1.75;0.77;;;1.20;99.90;;;;;;4995673;28;20454;-79
2022/03/31 09:34:09;;;;;;;1.90;0.90;;;1.20;99.90;;;;;;5017062;28;20044;-79
2022/03/31 09:36:39;;;;;;;1.88;1.05;;;1.10;99.90;;;;;;4995133;28;20048;-77
2022/03/31 09:39:13;;;;;;;2.50;0.95;;;1.10;99.90;;;;;;4996286;28;20120;-78
2022/03/31 09:41:42;;;;;;;2.05;1.13;;;1.10;99.90;;;;;;4997316;28;20072;-81
2022/03/31 09:44:21;;;;;;;2.13;0.80;;;1.20;99.90;;;;;;5019007;28;20048;-77
2022/03/31 09:46:48;;;;;;;4.18;1.50;;;1.10;99.90;;;;;;5019834;28;20044;-82
2022/03/31 09:49:19;;;;;;;1.73;1.10;;;1.10;99.90;;;;;;5019425;28;20486;-77
2022/03/31 09:51:51;;;;;;;2.90;1.02;;;1.20;99.90;;;;;;4995571;28;20052;-79
2022/03/31 09:54:18;;;;;;;3.08;1.02;;;1.20;99.90;;;;;;5018490;28;20116;-75
2022/03/31 09:56:44;;;;;;;2.22;1.23;;;1.20;99.90;;;;;;5019116;28;20029;-77
2022/03/31 09:59:11;;;;;;;2.33;1.10;;;1.20;99.90;;;;;;4995481;28;20512;-76
2022/03/31 10:01:39;;;;;;;2.85;1.20;;;1.20;99.90;;;;;;4995915;28;20033;-77
2022/03/31 10:04:10;;;;;;;3.47;1.92;;;1.20;99.90;;;;;;4985398;28;20052;-77
2022/03/31 10:06:37;;;;;;;2.33;1.10;;;1.20;99.90;;;;;;5017538;28;20026;-79
2022/03/31 10:09:05;;;;;;;2.97;0.90;;;1.20;99.90;;;;;;4999740;28;20036;-79
2022/03/31 10:11:34;;;;;;;2.65;1.33;;;1.30;99.90;;;;;;5017466;28;20048;-80
2022/03/31 10:14:19;;;;;;;2.72;1.15;;;1.30;99.90;;;;;;5018901;28;20030;-79
2022/03/31 10:16:52;;;;;;;3.95;1.88;;;1.20;99.90;;;;;;5000038;28;20061;-79
2022/03/31 10:19:36;;;;;;;2.88;1.40;;;1.20;99.90;;;;;;5016248;28;20478;-82
2022/03/31 10:22:04;;;;;;;3.10;1.42;;;1.20;99.90;;;;;;4999344;28;20091;-82
2022/03/31 10:24:46;;;;;;;4.32;2.13;;;1.30;99.90;;;;;;5018391;28;20117;-77
2022/03/31 10:27:26;;;;;;;3.78;2.00;;;1.20;99.90;;;;;;5016045;28;20036;-79
2022/03/31 10:29:53;;;;;;;3.42;2.25;;;1.20;99.90;;;;;;5016014;28;20116;-77
2022/03/31 10:32:21;;;;;;;4.03;2.20;;;1.20;99.90;;;;;;5016063;28;20190;-79
2022/03/31 10:34:53;;;;;;;4.18;1.70;;;1.20;99.90;;;;;;4993523;28;20044;-76
2022/03/31 10:37:38;;;;;;;3.58;2.25;;;1.20;99.90;;;;;;5009239;28;20059;-77
2022/03/31 10:40:08;;;;;;;3.03;2.00;;;1.30;99.90;;;;;;4992925;28;20033;-80
2022/03/31 10:42:34;;;;;;;3.00;1.67;;;1.20;99.90;;;;;;4998610;28;20133;-82
2022/03/31 10:45:14;;;;;;;2.85;1.67;;;1.30;99.90;;;;;;4994614;28;20603;-79
2022/03/31 10:47:42;;;;;;;3.15;1.55;;;1.30;99.90;;;;;;4993131;28;20042;-79
2022/03/31 10:50:24;;;;;;;1.90;1.00;;;1.30;99.90;;;;;;4997740;28;20033;-80
2022/03/31 10:53:01;;;;;;;3.13;1.52;;;1.30;99.90;;;;;;5018473;28;20041;-78
2022/03/31 10:55:40;;;;;;;2.95;2.30;;;1.30;99.90;;;;;;5017959;28;20104;-78
2022/03/31 10:58:07;;;;;;;1.73;0.95;;;1.30;99.90;;;;;;4984351;28;20041;-80
2022/03/31 11:00:33;;;;;;;2.42;1.48;;;1.40;99.90;;;;;;5015337;28;20093;-80
2022/03/31 11:02:59;;;;;;;2.30;1.50;;;1.30;99.90;;;;;;5020541;28;20857;-77
2022/03/31 11:05:27;;;;;;;2.47;1.65;;;1.30;99.90;;;;;;5018704;28;20041;-79
2022/03/31 11:08:06;;;;;;;2.28;1.52;;;1.30;99.90;;;;;;4980640;28;20064;-79
2022/03/31 11:10:41;;;;;;;2.00;1.50;;;1.30;99.90;;;;;;5002381;28;20034;-80
2022/03/31 11:13:08;;;;;;;1.70;0.80;;;1.30;99.90;;;;;;5003378;28;20083;-81
2022/03/31 11:15:34;;;;;;;1.58;0.80;;;1.40;99.90;;;;;;4995666;28;20113;-82
2022/03/31 11:18:00;;;;;;;2.42;1.25;;;1.50;99.90;;;;;;5022102;28;20552;-80
2022/03/31 11:20:27;;;;;;;3.35;1.90;;;1.50;99.90;;;;;;5020839;28;20087;-79
2022/03/31 11:23:03;;;;;;;3.08;2.30;;;1.50;99.90;;;;;;4985249;28;20040;-78
2022/03/31 11:25:30;;;;;;;1.90;1.25;;;1.50;99.90;;;;;;5001134;28;20049;-79
2022/03/31 11:27:58;;;;;;;3.40;2.20;;;1.50;99.90;;;;;;5018821;28;20566;-78
2022/03/31 11:30:29;;;;;;;2.30;1.60;;;1.50;99.90;;;;;;5021769;28;20044;-79
2022/03/31 11:32:56;;;;;;;3.20;1.33;;;1.50;99.90;;;;;;5019324;28;20120;-78
2022/03/31 11:35:25;;;;;;;2.00;1.00;;;1.60;99.90;;;;;;5021202;28;20048;-79
2022/03/31 11:37:57;;;;;;;1.95;1.20;;;1.60;99.90;;;;;;5000770;28;20029;-79
2022/03/31 11:40:33;;;;;;;2.08;1.20;;;1.60;99.90;;;;;;4996335;28;20048;-79
2022/03/31 11:43:01;;;;;;;2.42;1.65;;;1.60;99.90;;;;;;5021658;28;20125;-79
2022/03/31 11:45:33;;;;;;;2.33;1.73;;;1.60;99.90;;;;;;4995854;28;20091;-79
2022/03/31 11:48:11;;;;;;;2.92;1.73;;;1.60;99.90;;;;;;4997774;28;20037;-79
2022/03/31 11:50:39;;;;;;;1.83;1.08;;;1.70;99.90;;;;;;4986511;28;20048;-78
2022/03/31 11:53:26;;;;;;;1.60;0.90;;;1.80;99.90;;;;;;5016683;28;20296;-78
2022/03/31 11:56:00;;;;;;;2.75;1.95;;;1.80;99.90;;;;;;4997486;28;20413;-79
2022/03/31 11:58:30;;;;;;;3.38;2.03;;;1.80;99.90;;;;;;5018907;28;20029;-79
2022/03/31 12:00:56;;;;;;;2.95;1.70;;;1.90;99.90;;;;;;5019570;28;20033;-79
2022/03/31 12:03:22;;;;;;;3.03;1.60;;;1.90;99.90;;;;;;5001461;28;20045;-78
2022/03/31 12:05:59;;;;;;;3.28;2.33;;;2.00;99.90;;;;;;5019051;28;20044;-78
2022/03/31 12:08:26;;;;;;;3.28;1.63;;;1.90;99.90;;;;;;5020167;28;20037;-79
2022/03/31 12:10:52;;;;;;;1.95;1.13;;;2.00;99.90;;;;;;4979771;28;20095;-78
2022/03/31 12:13:20;;;;;;;2.42;1.30;;;2.00;99.90;;;;;;5002839;28;20497;-78
2022/03/31 12:15:45;;;;;;;2.45;1.23;;;2.00;99.90;;;;;;5013317;28;22111;-78
2022/03/31 12:18:15;;;;;;;3.03;2.15;;;1.90;99.90;;;;;;5002585;28;20033;-78
2022/03/31 12:20:41;;;;;;;3.38;2.00;;;1.90;99.90;;;;;;4997826;28;20048;-78
2022/03/31 12:23:18;;;;;;;4.30;1.65;;;1.90;99.90;;;;;;5002551;28;20401;-78
2022/03/31 12:25:43;;;;;;;2.70;1.48;;;1.90;99.90;;;;;;4997492;28;20202;-79
2022/03/31 12:28:09;;;;;;;3.85;1.40;;;1.90;99.90;;;;;;5002809;28;20025;-79
2022/03/31 12:30:51;;;;;;;2.25;1.52;;;1.80;99.90;;;;;;4969469;28;20154;-78
2022/03/31 12:33:39;;;;;;;4.38;1.83;;;1.90;99.90;;;;;;5003189;28;20067;-78
2022/03/31 12:36:07;;;;;;;2.40;1.00;;;1.90;99.90;;;;;;5020181;28;20029;-79
2022/03/31 12:38:47;;;;;;;2.55;1.77;;;2.00;99.90;;;;;;5017712;28;20087;-78
2022/03/31 12:41:18;;;;;;;2.33;1.58;;;1.90;99.90;;;;;;5020157;28;20631;-79
2022/03/31 12:43:59;;;;;;;2.50;1.10;;;1.80;99.90;;;;;;4983570;28;20044;-79
2022/03/31 12:46:28;;;;;;;1.92;1.23;;;1.90;99.90;;;;;;4996127;28;20060;-79
2022/03/31 12:49:04;;;;;;;2.47;1.55;;;1.90;99.90;;;;;;4996562;28;20026;-79
2022/03/31 12:52:02;;;;;;;2.20;1.75;;;2.00;99.90;;;;;;4996258;28;20138;-78
2022/03/31 12:54:34;;;;;;;2.20;1.48;;;1.90;99.90;;;;;;5004093;28;20037;-79
2022/03/31 12:57:07;;;;;;;2.17;1.65;;;2.00;99.90;;;;;;5019397;28;20052;-77
2022/03/31 12:59:34;;;;;;;1.50;0.90;;;1.90;99.90;;;;;;4986502;28;20037;-79
2022/03/31 13:02:12;;;;;;;1.73;1.05;;;1.90;99.90;;;;;;4997579;28;20133;-79
2022/03/31 13:04:42;;;;;;;2.00;1.50;;;1.90;99.90;;;;;;4995566;28;20037;-79
2022/03/31 13:07:11;;;;;;;;;;;1.90;99.90;;;;;;5002553;28;20042;-78